createdAt,value
2022-10-22T00:01:38.895Z,7.07
2022-10-22T00:04:05.686Z,5.75
2022-10-22T00:06:32.268Z,6.10
2022-10-22T00:08:58.917Z,6.28
2022-10-22T00:11:25.638Z,6.32
2022-10-22T00:13:52.203Z,6.32
2022-10-22T00:16:18.820Z,5.32
2022-10-22T00:18:45.402Z,5.78
2022-10-22T00:21:11.940Z,8.07
2022-10-22T00:23:43.008Z,7.68
2022-10-22T00:26:10.082Z,6.25
2022-10-22T00:28:36.659Z,5.43
2022-10-22T00:31:03.210Z,5.82
2022-10-22T00:33:29.948Z,5.22
2022-10-22T00:35:56.931Z,5.18
2022-10-22T00:38:23.635Z,5.57
2022-10-22T00:40:50.273Z,5.22
2022-10-22T00:43:18.784Z,6.25
2022-10-22T00:45:45.567Z,5.30
2022-10-22T00:48:13.847Z,5.95
2022-10-22T00:50:41.979Z,6.03
2022-10-22T00:53:29.771Z,5.15
2022-10-22T00:55:56.334Z,5.57
2022-10-22T00:58:24.879Z,6.43
2022-10-22T01:00:51.485Z,6.60
2022-10-22T01:03:18.088Z,5.37
2022-10-22T01:05:54.422Z,6.40
2022-10-22T01:08:29.024Z,5.15
2022-10-22T01:11:20.240Z,6.05
2022-10-22T01:13:53.534Z,5.78
2022-10-22T01:16:35.274Z,5.70
2022-10-22T01:19:07.945Z,5.50
2022-10-22T01:21:45.591Z,7.60
2022-10-22T01:24:42.438Z,4.87
2022-10-22T01:29:53.563Z,5.12
2022-10-22T01:32:22.750Z,5.05
2022-10-22T01:34:54.356Z,6.93
2022-10-22T01:37:22.200Z,5.18
2022-10-22T01:39:48.793Z,5.25
2022-10-22T01:42:15.463Z,5.35
2022-10-22T01:44:42.050Z,6.65
2022-10-22T01:47:08.708Z,5.75
2022-10-22T01:49:45.086Z,5.05
2022-10-22T01:52:23.740Z,8.45
2022-10-22T01:55:05.036Z,5.53
2022-10-22T01:57:53.296Z,6.43
2022-10-22T02:00:19.947Z,5.03
2022-10-22T02:02:49.383Z,7.28
2022-10-22T02:05:24.860Z,6.90
2022-10-22T02:07:59.650Z,6.70
2022-10-22T02:10:26.211Z,6.47
2022-10-22T02:12:54.198Z,5.50
2022-10-22T02:15:20.952Z,5.47
2022-10-22T02:17:47.708Z,5.43
2022-10-22T02:20:31.731Z,5.75
2022-10-22T02:22:58.580Z,7.12
2022-10-22T02:25:25.488Z,6.50
2022-10-22T02:27:59.755Z,5.07
2022-10-22T02:30:26.412Z,5.50
2022-10-22T02:33:13.085Z,5.25
2022-10-22T02:35:39.925Z,4.60
2022-10-22T02:38:06.621Z,5.53
2022-10-22T02:40:33.183Z,6.45
2022-10-22T02:42:59.922Z,6.97
2022-10-22T02:45:26.494Z,7.87
2022-10-22T02:47:53.058Z,7.37
2022-10-22T02:50:19.660Z,4.85
2022-10-22T02:52:46.245Z,5.97
2022-10-22T02:55:12.801Z,5.60
2022-10-22T02:57:39.550Z,5.97
2022-10-22T03:00:07.175Z,5.75
2022-10-22T03:02:33.730Z,5.35
2022-10-22T03:05:00.324Z,4.60
2022-10-22T03:07:26.907Z,6.40
2022-10-22T03:09:53.581Z,5.32
2022-10-22T03:12:20.269Z,6.35
2022-10-22T03:14:46.963Z,4.45
2022-10-22T03:17:13.526Z,5.72
2022-10-22T03:19:40.146Z,6.18
2022-10-22T03:22:09.867Z,6.75
2022-10-22T03:24:46.348Z,6.45
2022-10-22T03:27:13.186Z,4.65
2022-10-22T03:29:39.890Z,7.43
2022-10-22T03:32:06.518Z,4.78
2022-10-22T03:34:33.093Z,5.07
2022-10-22T03:37:00.003Z,5.82
2022-10-22T03:39:26.555Z,5.35
2022-10-22T03:41:53.187Z,6.50
2022-10-22T03:44:19.792Z,5.55
2022-10-22T03:46:46.343Z,6.10
2022-10-22T03:49:12.976Z,6.53
2022-10-22T03:51:39.570Z,4.95
2022-10-22T03:54:06.171Z,6.00
2022-10-22T03:56:32.800Z,6.95
2022-10-22T03:59:00.076Z,5.62
2022-10-22T04:01:27.360Z,6.60
2022-10-22T04:03:54.118Z,5.32
2022-10-22T04:06:20.672Z,5.78
2022-10-22T04:08:47.351Z,5.87
2022-10-22T04:11:14.428Z,6.18
2022-10-22T04:13:41.014Z,4.32
2022-10-22T04:16:18.303Z,5.20
2022-10-22T04:18:45.227Z,6.43
2022-10-22T04:21:12.609Z,5.28
2022-10-22T04:23:39.287Z,6.90
2022-10-22T04:26:07.050Z,6.78
2022-10-22T04:28:34.673Z,7.22
2022-10-22T04:31:01.293Z,6.25
2022-10-22T04:33:27.852Z,5.18
2022-10-22T04:35:54.417Z,7.45
2022-10-22T04:38:20.966Z,6.03
2022-10-22T04:40:47.518Z,5.25
2022-10-22T04:43:14.082Z,4.90
2022-10-22T04:45:40.625Z,5.93
2022-10-22T04:48:07.303Z,5.80
2022-10-22T04:50:33.990Z,5.68
2022-10-22T04:53:00.558Z,5.12
2022-10-22T04:55:27.202Z,8.43
2022-10-22T04:57:53.823Z,6.82
2022-10-22T05:00:20.416Z,5.53
2022-10-22T05:02:50.527Z,6.15
2022-10-22T05:05:17.257Z,5.18
2022-10-22T05:07:43.942Z,5.60
2022-10-22T05:10:10.737Z,5.57
2022-10-22T05:12:37.404Z,7.28
2022-10-22T05:15:04.100Z,6.07
2022-10-22T05:17:30.671Z,5.22
2022-10-22T05:19:57.217Z,6.37
2022-10-22T05:22:23.799Z,5.28
2022-10-22T05:24:50.488Z,6.43
2022-10-22T05:27:17.037Z,6.05
2022-10-22T05:29:43.584Z,5.85
2022-10-22T05:32:10.150Z,7.82
2022-10-22T05:34:36.775Z,7.12
2022-10-22T05:37:03.478Z,6.32
2022-10-22T05:39:30.064Z,7.35
2022-10-22T05:41:56.694Z,5.62
2022-10-22T05:44:23.253Z,5.32
2022-10-22T05:46:49.806Z,7.70
2022-10-22T05:49:16.399Z,5.87
2022-10-22T05:51:43.160Z,5.47
2022-10-22T05:54:13.036Z,5.65
2022-10-22T05:56:39.669Z,5.05
2022-10-22T05:59:06.344Z,6.07
2022-10-22T06:01:35.364Z,5.20
2022-10-22T06:04:04.055Z,5.47
2022-10-22T06:06:34.226Z,5.57
2022-10-22T06:09:26.550Z,5.10
2022-10-22T06:11:53.211Z,5.68
2022-10-22T06:14:20.250Z,5.53
2022-10-22T06:16:46.875Z,4.75
2022-10-22T06:19:14.388Z,8.02
2022-10-22T06:21:40.959Z,6.47
2022-10-22T06:24:07.922Z,6.45
2022-10-22T06:26:34.505Z,5.95
2022-10-22T06:29:04.285Z,5.07
2022-10-22T06:31:36.762Z,6.37
2022-10-22T06:34:04.639Z,6.72
2022-10-22T06:36:31.305Z,6.18
2022-10-22T06:38:57.937Z,5.82
2022-10-22T06:41:28.595Z,7.18
2022-10-22T06:43:57.454Z,5.12
2022-10-22T06:46:24.605Z,6.85
2022-10-22T06:48:52.941Z,7.68
2022-10-22T06:51:22.533Z,5.87
2022-10-22T06:53:49.289Z,5.22
2022-10-22T06:56:17.936Z,6.00
2022-10-22T06:58:47.419Z,6.40
2022-10-22T07:01:14.748Z,5.47
2022-10-22T07:03:41.499Z,6.45
2022-10-22T07:06:09.927Z,6.95
2022-10-22T07:08:36.880Z,4.82
2022-10-22T07:11:08.491Z,5.72
2022-10-22T07:13:35.299Z,5.55
2022-10-22T07:16:02.168Z,5.95
2022-10-22T07:18:28.744Z,6.72
2022-10-22T07:20:55.303Z,6.50
2022-10-22T07:23:21.890Z,6.78
2022-10-22T07:25:48.609Z,7.53
2022-10-22T07:28:15.232Z,5.53
2022-10-22T07:30:41.942Z,6.32
2022-10-22T07:33:08.565Z,6.22
2022-10-22T07:35:37.355Z,5.80
2022-10-22T07:38:04.354Z,8.63
2022-10-22T07:40:30.929Z,5.90
2022-10-22T07:42:57.515Z,6.50
2022-10-22T07:45:24.072Z,5.50
2022-10-22T07:47:50.619Z,6.47
2022-10-22T07:50:17.440Z,5.65
2022-10-22T07:52:44.461Z,5.47
2022-10-22T07:55:11.129Z,5.35
2022-10-22T07:57:37.751Z,5.85
2022-10-22T08:00:05.845Z,7.10
2022-10-22T08:02:32.494Z,5.72
2022-10-22T08:05:01.767Z,6.60
2022-10-22T08:07:28.369Z,6.10
2022-10-22T08:09:54.992Z,6.43
2022-10-22T08:12:21.779Z,5.55
2022-10-22T08:14:48.323Z,6.97
2022-10-22T08:17:15.423Z,5.72
2022-10-22T08:19:42.124Z,7.57
2022-10-22T08:22:08.663Z,6.82
2022-10-22T08:24:35.613Z,5.87
2022-10-22T08:27:02.203Z,4.85
2022-10-22T08:29:31.187Z,5.43
2022-10-22T08:31:57.796Z,6.18
2022-10-22T08:34:24.417Z,6.12
2022-10-22T08:36:50.994Z,6.85
2022-10-22T08:39:17.578Z,5.55
2022-10-22T08:42:18.397Z,5.65
2022-10-22T08:45:06.787Z,6.87
2022-10-22T08:48:08.492Z,7.82
2022-10-22T08:50:49.472Z,7.60
2022-10-22T08:53:17.982Z,5.87
2022-10-22T08:55:44.934Z,4.93
2022-10-22T08:58:20.272Z,6.40
2022-10-22T09:00:52.566Z,6.95
2022-10-22T09:03:37.811Z,6.30
2022-10-22T09:06:25.330Z,8.57
2022-10-22T09:08:52.741Z,5.07
2022-10-22T09:11:39.503Z,8.82
2022-10-22T09:14:06.254Z,7.30
2022-10-22T09:16:35.767Z,8.18
2022-10-22T09:19:29.916Z,8.23
2022-10-22T09:22:18.047Z,5.95
2022-10-22T09:24:46.592Z,11.43
2022-10-22T09:27:20.090Z,8.23
2022-10-22T09:29:47.532Z,8.07
2022-10-22T09:32:18.098Z,6.15
2022-10-22T09:34:45.629Z,9.45
2022-10-22T09:37:12.301Z,7.95
2022-10-22T09:39:40.769Z,6.18
2022-10-22T09:42:07.904Z,7.18
2022-10-22T09:44:35.262Z,8.13
2022-10-22T09:47:37.350Z,6.53
2022-10-22T09:50:09.561Z,7.80
2022-10-22T09:52:36.195Z,6.43
2022-10-22T09:55:02.985Z,7.72
2022-10-22T09:57:29.808Z,8.82
2022-10-22T09:59:57.499Z,9.27
2022-10-22T10:02:38.238Z,6.07
2022-10-22T10:05:06.169Z,8.85
2022-10-22T10:07:33.236Z,7.25
2022-10-22T10:09:59.794Z,6.60
2022-10-22T10:12:55.684Z,9.50
2022-10-22T10:15:29.098Z,17.27
2022-10-22T10:18:18.250Z,12.85
2022-10-22T10:21:10.673Z,9.63
2022-10-22T10:23:50.915Z,9.90
2022-10-22T10:26:26.415Z,9.38
2022-10-22T10:29:15.842Z,9.07
2022-10-22T10:32:03.260Z,9.07
2022-10-22T10:34:53.250Z,8.65
2022-10-22T10:37:25.420Z,8.85
2022-10-22T10:40:20.079Z,11.57
2022-10-22T10:42:51.511Z,10.40
2022-10-22T10:45:21.222Z,10.52
2022-10-22T10:48:06.124Z,12.20
2022-10-22T10:50:49.058Z,9.85
2022-10-22T10:53:27.818Z,9.20
2022-10-22T10:56:18.358Z,8.07
2022-10-22T10:58:49.795Z,7.75
2022-10-22T11:01:24.718Z,6.65
2022-10-22T11:04:34.568Z,8.20
2022-10-22T11:07:11.452Z,7.37
2022-10-22T11:09:54.652Z,7.37
2022-10-22T11:12:27.250Z,7.20
2022-10-22T11:15:41.241Z,7.82
2022-10-22T11:18:18.916Z,6.75
2022-10-22T11:21:05.307Z,10.55
2022-10-22T11:26:05.573Z,8.07
2022-10-22T11:28:42.225Z,8.25
2022-10-22T11:31:16.304Z,9.70
2022-10-22T11:34:10.050Z,9.43
2022-10-22T11:36:45.242Z,8.15
2022-10-22T11:39:43.129Z,7.97
2022-10-22T11:42:11.542Z,7.72
2022-10-22T11:44:48.815Z,6.25
2022-10-22T11:47:20.822Z,8.55
2022-10-22T11:50:22.718Z,9.27
2022-10-22T11:53:03.999Z,7.95
2022-10-22T11:55:34.577Z,7.30
2022-10-22T11:58:02.287Z,8.40
2022-10-22T12:00:40.319Z,8.40
2022-10-22T12:03:40.978Z,7.40
2022-10-22T12:06:15.001Z,7.95
2022-10-22T12:08:45.243Z,10.88
2022-10-22T12:11:11.862Z,7.68
2022-10-22T12:14:00.344Z,7.35
2022-10-22T12:16:37.857Z,7.70
2022-10-22T12:19:17.475Z,10.32
2022-10-22T12:21:49.346Z,8.63
2022-10-22T12:24:17.994Z,8.48
2022-10-22T12:26:46.137Z,7.25
2022-10-22T12:29:14.851Z,8.30
2022-10-22T12:31:42.653Z,7.60
2022-10-22T12:34:13.709Z,7.25
2022-10-22T12:36:40.303Z,8.13
2022-10-22T12:39:12.727Z,7.53
2022-10-22T12:41:39.416Z,11.45
2022-10-22T12:44:06.147Z,10.65
2022-10-22T12:46:34.015Z,8.95
2022-10-22T12:49:01.769Z,10.38
2022-10-22T12:51:28.374Z,8.48
2022-10-22T12:53:56.712Z,9.55
2022-10-22T12:56:25.535Z,9.85
2022-10-22T12:59:02.910Z,10.10
2022-10-22T13:01:32.668Z,9.18
2022-10-22T13:04:21.188Z,9.27
2022-10-22T13:06:51.681Z,9.85
2022-10-22T13:09:26.947Z,8.77
2022-10-22T13:11:55.402Z,8.05
2022-10-22T13:14:26.544Z,8.70
2022-10-22T13:17:15.003Z,10.23
2022-10-22T13:19:46.036Z,11.07
2022-10-22T13:23:00.151Z,8.13
2022-10-22T13:25:31.598Z,8.35
2022-10-22T13:28:07.004Z,9.02
2022-10-22T13:30:35.570Z,9.85
2022-10-22T13:33:26.244Z,9.80
2022-10-22T13:35:53.247Z,8.88
2022-10-22T13:38:21.314Z,10.15
2022-10-22T13:40:48.100Z,8.95
2022-10-22T13:43:15.553Z,9.68
2022-10-22T13:45:42.335Z,10.93
2022-10-22T13:48:10.010Z,8.15
2022-10-22T13:50:36.578Z,9.27
2022-10-22T13:53:03.200Z,8.75
2022-10-22T13:55:30.177Z,8.05
2022-10-22T13:57:58.393Z,9.48
2022-10-22T14:00:24.962Z,9.90
2022-10-22T14:02:53.532Z,10.00
2022-10-22T14:05:20.080Z,10.70
2022-10-22T14:07:46.694Z,9.70
2022-10-22T14:10:17.928Z,10.13
2022-10-22T14:12:47.289Z,9.75
2022-10-22T14:15:17.390Z,9.27
2022-10-22T14:17:49.668Z,7.90
2022-10-22T14:20:19.117Z,8.85
2022-10-22T14:22:49.113Z,8.40
2022-10-22T14:25:22.098Z,9.70
2022-10-22T14:27:48.798Z,10.30
2022-10-22T14:30:19.266Z,8.10
2022-10-22T14:32:46.348Z,10.43
2022-10-22T14:35:14.068Z,7.22
2022-10-22T14:37:40.952Z,8.85
2022-10-22T14:40:08.461Z,9.10
2022-10-22T14:42:38.834Z,8.43
2022-10-22T14:45:06.424Z,9.00
2022-10-22T14:47:33.289Z,10.13
2022-10-22T14:50:01.808Z,9.93
2022-10-22T14:52:28.401Z,9.73
2022-10-22T14:54:54.966Z,9.30
2022-10-22T14:57:21.601Z,7.50
2022-10-22T14:59:48.472Z,9.75
2022-10-22T15:02:15.030Z,9.60
2022-10-22T15:04:41.697Z,13.35
2022-10-22T15:07:08.300Z,8.95
2022-10-22T15:09:34.874Z,10.05
2022-10-22T15:12:01.432Z,9.18
2022-10-22T15:14:28.003Z,9.73
2022-10-22T15:16:54.547Z,9.27
2022-10-22T15:19:21.091Z,8.27
2022-10-22T15:21:47.672Z,10.05
2022-10-22T15:24:14.325Z,8.00
2022-10-22T15:26:40.982Z,9.43
2022-10-22T15:29:07.653Z,9.98
2022-10-22T15:31:48.726Z,9.35
2022-10-22T15:34:23.845Z,7.32
2022-10-22T15:36:50.719Z,9.20
2022-10-22T15:39:17.397Z,10.73
2022-10-22T15:41:44.144Z,8.65
2022-10-22T15:44:15.583Z,8.68
2022-10-22T15:46:43.234Z,8.85
2022-10-22T15:49:09.842Z,8.52
2022-10-22T15:51:36.631Z,7.45
2022-10-22T15:54:06.458Z,7.78
2022-10-22T15:56:35.981Z,11.20
2022-10-22T15:59:04.064Z,9.30
2022-10-22T16:01:31.482Z,12.95
2022-10-22T16:04:02.639Z,7.65
2022-10-22T16:06:32.028Z,7.82
2022-10-22T16:08:59.789Z,8.48
2022-10-22T16:11:27.450Z,9.50
2022-10-22T16:13:56.440Z,8.40
2022-10-22T16:16:23.873Z,8.25
2022-10-22T16:18:51.114Z,8.43
2022-10-22T16:21:17.734Z,9.52
2022-10-22T16:23:44.525Z,8.38
2022-10-22T16:26:11.291Z,9.38
2022-10-22T16:28:37.893Z,8.05
2022-10-22T16:31:06.167Z,7.03
2022-10-22T16:33:41.222Z,9.10
2022-10-22T16:36:15.047Z,7.57
2022-10-22T16:38:41.603Z,7.72
2022-10-22T16:41:09.540Z,8.50
2022-10-22T16:43:36.321Z,9.27
2022-10-22T16:46:02.900Z,7.57
2022-10-22T16:48:29.547Z,9.05
2022-10-22T16:50:56.125Z,8.25
2022-10-22T16:53:23.059Z,7.82
2022-10-22T16:55:49.744Z,8.50
2022-10-22T16:58:16.403Z,9.65
2022-10-22T17:00:43.033Z,9.73
2022-10-22T17:03:11.223Z,8.23
2022-10-22T17:05:37.827Z,8.27
2022-10-22T17:08:04.526Z,7.65
2022-10-22T17:10:31.130Z,9.68
2022-10-22T17:12:57.678Z,9.63
2022-10-22T17:15:24.235Z,8.93
2022-10-22T17:17:53.713Z,7.55
2022-10-22T17:20:20.446Z,9.52
2022-10-22T17:22:47.303Z,8.02
2022-10-22T17:25:22.193Z,9.07
2022-10-22T17:27:49.100Z,9.77
2022-10-22T17:30:16.943Z,9.60
2022-10-22T17:32:43.669Z,11.15
2022-10-22T17:35:10.340Z,8.20
2022-10-22T17:37:37.037Z,9.45
2022-10-22T17:40:07.170Z,9.40
2022-10-22T17:42:33.920Z,7.22
2022-10-22T17:45:00.555Z,8.80
2022-10-22T17:47:27.149Z,11.55
2022-10-22T17:49:53.802Z,8.88
2022-10-22T17:52:20.367Z,7.97
2022-10-22T17:54:48.129Z,8.75
2022-10-22T17:57:14.677Z,9.05
2022-10-22T17:59:41.280Z,8.20
2022-10-22T18:02:10.286Z,9.45
2022-10-22T18:04:36.986Z,7.15
2022-10-22T18:07:03.581Z,7.93
2022-10-22T18:09:30.155Z,8.68
2022-10-22T18:11:56.823Z,8.57
2022-10-22T18:14:26.944Z,9.48
2022-10-22T18:16:54.548Z,9.90
2022-10-22T18:19:23.151Z,7.55
2022-10-22T18:21:49.787Z,10.38
2022-10-22T18:24:16.453Z,7.37
2022-10-22T18:26:43.186Z,7.62
2022-10-22T18:29:14.233Z,8.32
2022-10-22T18:31:40.813Z,7.87
2022-10-22T18:34:07.406Z,9.82
2022-10-22T18:36:33.982Z,7.30
2022-10-22T18:39:01.511Z,8.50
2022-10-22T18:41:29.064Z,8.15
2022-10-22T18:43:57.303Z,8.73
2022-10-22T18:46:24.221Z,8.13
2022-10-22T18:48:56.874Z,7.35
2022-10-22T18:51:24.327Z,7.62
2022-10-22T18:54:04.579Z,8.07
2022-10-22T18:56:39.175Z,8.73
2022-10-22T18:59:05.749Z,7.43
2022-10-22T19:01:35.412Z,7.47
2022-10-22T19:04:02.154Z,8.52
2022-10-22T19:06:37.162Z,6.87
2022-10-22T19:09:05.466Z,8.00
2022-10-22T19:11:32.087Z,7.95
2022-10-22T19:13:58.648Z,6.95
2022-10-22T19:16:26.869Z,6.12
2022-10-22T19:18:53.809Z,6.32
2022-10-22T19:21:23.064Z,7.03
2022-10-22T19:23:50.209Z,9.38
2022-10-22T19:26:17.819Z,7.40
2022-10-22T19:28:44.761Z,8.82
2022-10-22T19:31:13.363Z,8.43
2022-10-22T19:33:40.309Z,9.30
2022-10-22T19:36:16.774Z,7.60
2022-10-22T19:38:44.944Z,7.50
2022-10-22T19:41:15.247Z,9.90
2022-10-22T19:43:42.464Z,6.85
2022-10-22T19:46:09.087Z,7.28
2022-10-22T19:48:36.199Z,8.18
2022-10-22T19:51:11.148Z,8.38
2022-10-22T19:53:40.416Z,9.43
2022-10-22T19:56:07.963Z,6.90
2022-10-22T19:58:34.885Z,8.15
2022-10-22T20:01:10.232Z,8.02
2022-10-22T20:03:37.569Z,8.90
2022-10-22T20:06:05.368Z,10.10
2022-10-22T20:08:34.478Z,9.77
2022-10-22T20:11:01.502Z,8.02
2022-10-22T20:13:28.147Z,9.25
2022-10-22T20:15:54.785Z,7.10
2022-10-22T20:18:22.506Z,10.32
2022-10-22T20:20:49.398Z,7.40
2022-10-22T20:23:16.103Z,13.13
2022-10-22T20:25:43.818Z,6.62
2022-10-22T20:28:10.428Z,6.62
2022-10-22T20:30:43.874Z,8.68
2022-10-22T20:33:12.628Z,8.30
2022-10-22T20:35:39.322Z,7.28
2022-10-22T20:38:08.391Z,10.30
2022-10-22T20:40:35.464Z,8.00
2022-10-22T20:43:02.223Z,7.85
2022-10-22T20:45:28.789Z,7.32
2022-10-22T20:48:02.113Z,8.15
2022-10-22T20:50:31.307Z,7.75
2022-10-22T20:52:58.147Z,7.12
2022-10-22T20:55:24.748Z,7.45
2022-10-22T20:57:51.313Z,8.90
2022-10-22T21:00:18.138Z,9.43
2022-10-22T21:02:44.784Z,6.87
2022-10-22T21:05:11.353Z,8.10
2022-10-22T21:07:40.692Z,7.25
2022-10-22T21:10:10.380Z,9.70
2022-10-22T21:12:41.799Z,8.35
2022-10-22T21:15:11.770Z,7.90
2022-10-22T21:17:40.219Z,7.28
2022-10-22T21:20:07.054Z,8.95
2022-10-22T21:22:33.698Z,7.20
2022-10-22T21:25:00.245Z,7.07
2022-10-22T21:27:26.867Z,7.37
2022-10-22T21:29:53.418Z,6.95
2022-10-22T21:32:20.054Z,8.73
2022-10-22T21:34:46.642Z,7.45
2022-10-22T21:37:13.396Z,8.07
2022-10-22T21:39:42.059Z,6.95
2022-10-22T21:42:11.085Z,11.02
2022-10-22T21:44:37.647Z,9.23
2022-10-22T21:47:04.691Z,9.80
2022-10-22T21:49:31.343Z,8.25
2022-10-22T21:52:00.088Z,6.75
2022-10-22T21:54:27.106Z,7.00
2022-10-22T21:56:53.674Z,7.57
2022-10-22T21:59:20.245Z,8.20
2022-10-22T22:01:46.996Z,6.70
2022-10-22T22:04:13.615Z,7.37
2022-10-22T22:06:40.230Z,9.00
2022-10-22T22:09:06.909Z,6.15
2022-10-22T22:11:33.774Z,6.85
2022-10-22T22:14:00.348Z,8.30
2022-10-22T22:16:28.983Z,7.68
2022-10-22T22:18:57.372Z,7.22
2022-10-22T22:21:24.002Z,9.63
2022-10-22T22:23:50.891Z,7.65
2022-10-22T22:26:28.302Z,7.87
2022-10-22T22:28:57.202Z,8.32
2022-10-22T22:31:31.330Z,9.68
2022-10-22T22:34:01.860Z,7.47
2022-10-22T22:36:28.516Z,9.00
2022-10-22T22:38:56.212Z,8.68
2022-10-22T22:41:23.000Z,8.18
2022-10-22T22:43:49.647Z,10.07
2022-10-22T22:46:16.302Z,6.25
2022-10-22T22:48:42.861Z,8.85
2022-10-22T22:51:09.864Z,6.60
2022-10-22T22:53:36.420Z,6.57
2022-10-22T22:56:17.232Z,7.32
2022-10-22T22:58:44.015Z,6.85
2022-10-22T23:01:30.858Z,6.65
2022-10-22T23:04:05.040Z,9.20
2022-10-22T23:06:33.193Z,6.10
2022-10-22T23:08:59.986Z,6.80
2022-10-22T23:11:27.210Z,8.02
2022-10-22T23:14:03.881Z,6.93
2022-10-22T23:16:32.380Z,7.53
2022-10-22T23:18:59.008Z,6.47
2022-10-22T23:21:30.408Z,5.55
2022-10-22T23:23:58.570Z,6.15
2022-10-22T23:26:27.076Z,7.03
2022-10-22T23:28:53.629Z,8.13
2022-10-22T23:31:21.550Z,5.93
2022-10-22T23:33:48.194Z,5.97
2022-10-22T23:36:14.810Z,6.15
2022-10-22T23:38:41.648Z,6.50
2022-10-22T23:41:08.440Z,7.18
2022-10-22T23:43:38.353Z,6.20
2022-10-22T23:46:05.847Z,6.57
2022-10-22T23:48:32.430Z,6.82
2022-10-22T23:51:06.907Z,8.02
2022-10-22T23:53:33.569Z,6.70
2022-10-22T23:56:06.976Z,6.80
2022-10-22T23:58:33.773Z,6.20
